Time;durP1;ratioP1;P1;durP2;ratioP2;P2;SDS_P1;SDS_P2;PMS_P1;PMS_P2;Temp;Humidity;BMP_temperature;BMP_pressure;BME280_temperature;BME280_humidity;BME280_pressure;Samples;Min_cycle;Max_cycle;Signal;HPM_P1;HPM_P2
2024/01/25 00:01:21;;;;;;;38.05;5.25;;;8.30;99.90;;;;;;7335507;32;20243;-56
2024/01/25 00:05:23;;;;;;;28.70;6.25;;;8.30;99.90;;;;;;7347861;32;20107;-57
2024/01/25 00:09:25;;;;;;;38.45;5.85;;;8.30;99.90;;;;;;7342073;32;20111;-56
2024/01/25 00:13:27;;;;;;;34.70;5.10;;;8.30;99.90;;;;;;7347032;32;20202;-57
2024/01/25 00:17:29;;;;;;;29.65;4.87;;;8.30;99.90;;;;;;7344888;32;20131;-57
2024/01/25 00:21:30;;;;;;;34.33;5.68;;;8.20;99.90;;;;;;7341599;32;20118;-55
2024/01/25 00:25:32;;;;;;;42.38;5.50;;;8.20;99.90;;;;;;7343663;32;20292;-56
2024/01/25 00:29:35;;;;;;;39.05;5.75;;;8.10;99.90;;;;;;7340921;32;20593;-56
2024/01/25 00:33:36;;;;;;;31.55;5.25;;;8.10;99.90;;;;;;7341200;32;20492;-56
2024/01/25 00:37:40;;;;;;;45.85;6.93;;;8.00;99.90;;;;;;7342093;32;20183;-56
2024/01/25 00:41:46;;;;;;;37.45;5.78;;;8.00;99.90;;;;;;7338506;32;20122;-56
2024/01/25 00:45:48;;;;;;;32.35;4.72;;;7.90;99.90;;;;;;7347931;32;20522;-56
2024/01/25 00:49:51;;;;;;;34.60;5.45;;;7.90;99.90;;;;;;7344937;32;20269;-55
2024/01/25 00:53:53;;;;;;;33.22;5.47;;;7.90;99.90;;;;;;7341198;32;20221;-55
2024/01/25 00:57:56;;;;;;;37.13;5.40;;;7.90;99.90;;;;;;7343675;32;20315;-56
2024/01/25 01:01:59;;;;;;;34.30;5.43;;;7.90;99.90;;;;;;7345095;32;20171;-56
2024/01/25 01:06:02;;;;;;;37.38;5.45;;;7.90;99.90;;;;;;7345160;32;20956;-56
2024/01/25 01:10:05;;;;;;;40.53;5.47;;;7.90;99.90;;;;;;7339738;32;20217;-56
2024/01/25 01:14:07;;;;;;;36.35;5.45;;;7.80;99.90;;;;;;7332376;32;20257;-57
2024/01/25 01:18:08;;;;;;;29.27;4.90;;;7.80;99.90;;;;;;7340536;32;20119;-56
2024/01/25 01:22:13;;;;;;;34.70;4.55;;;7.70;99.90;;;;;;7343346;32;20214;-55
2024/01/25 01:26:14;;;;;;;29.50;5.03;;;7.60;99.90;;;;;;7345917;32;20277;-56
2024/01/25 01:30:16;;;;;;;39.30;6.28;;;7.50;99.90;;;;;;7336243;32;20210;-59
2024/01/25 01:34:18;;;;;;;38.90;5.18;;;7.30;99.90;;;;;;7345080;32;20111;-56
2024/01/25 01:38:20;;;;;;;29.95;4.30;;;7.30;99.90;;;;;;7344318;32;20108;-57
2024/01/25 01:42:22;;;;;;;32.67;5.95;;;7.20;99.90;;;;;;7346390;32;20482;-57
2024/01/25 01:46:36;;;;;;;35.10;5.78;;;7.10;99.90;;;;;;7345604;32;20107;-56
2024/01/25 01:50:38;;;;;;;35.60;4.90;;;7.10;99.90;;;;;;7344776;32;20225;-56
2024/01/25 01:54:40;;;;;;;32.78;5.03;;;7.00;99.90;;;;;;7343785;32;20568;-57
2024/01/25 01:58:43;;;;;;;31.02;5.18;;;6.90;99.90;;;;;;7340821;32;20487;-56
2024/01/25 02:02:45;;;;;;;37.30;5.85;;;6.80;99.90;;;;;;7344844;32;20895;-57
2024/01/25 02:06:47;;;;;;;39.35;5.37;;;6.70;99.90;;;;;;7343451;32;20137;-58
2024/01/25 02:10:49;;;;;;;36.13;5.70;;;6.70;99.90;;;;;;7342498;32;20516;-56
2024/01/25 02:14:51;;;;;;;37.63;5.57;;;6.70;99.90;;;;;;7340046;32;20134;-58
2024/01/25 02:18:54;;;;;;;36.38;5.07;;;6.70;99.90;;;;;;7338100;32;21012;-56
2024/01/25 02:22:56;;;;;;;35.55;6.07;;;6.70;99.90;;;;;;7344818;32;20135;-56
2024/01/25 02:26:58;;;;;;;32.45;5.82;;;6.70;99.90;;;;;;7339716;32;20203;-56
2024/01/25 02:31:01;;;;;;;27.10;4.93;;;6.70;99.90;;;;;;7341551;32;20442;-56
2024/01/25 02:35:03;;;;;;;35.63;5.45;;;6.60;99.90;;;;;;7343783;32;20283;-58
2024/01/25 02:39:05;;;;;;;35.10;5.32;;;6.60;99.90;;;;;;7343227;32;20134;-56
2024/01/25 02:43:07;;;;;;;32.97;5.15;;;6.60;99.90;;;;;;7343319;32;20146;-56
2024/01/25 02:47:09;;;;;;;28.00;5.93;;;6.70;99.90;;;;;;7344118;32;20707;-57
2024/01/25 02:51:11;;;;;;;38.08;5.68;;;6.80;99.90;;;;;;7346240;32;20202;-57
2024/01/25 02:55:13;;;;;;;41.00;5.53;;;6.80;99.90;;;;;;7350883;32;20224;-56
2024/01/25 02:59:15;;;;;;;37.50;5.53;;;6.90;99.90;;;;;;7349008;32;20108;-58
2024/01/25 03:03:17;;;;;;;35.47;5.25;;;6.90;99.90;;;;;;7347191;32;20525;-56
2024/01/25 03:07:19;;;;;;;41.33;6.75;;;7.00;99.90;;;;;;7347684;32;20139;-58
2024/01/25 03:11:20;;;;;;;37.55;5.15;;;6.90;99.90;;;;;;7347226;32;20187;-56
2024/01/25 03:15:22;;;;;;;32.72;5.53;;;6.90;99.90;;;;;;7346998;32;20541;-56
2024/01/25 03:19:25;;;;;;;36.45;5.45;;;6.80;99.90;;;;;;7343386;32;20138;-57
2024/01/25 03:23:27;;;;;;;35.97;5.65;;;6.80;99.90;;;;;;7344172;32;20847;-56
2024/01/25 03:27:29;;;;;;;29.12;5.80;;;6.80;99.90;;;;;;7348167;32;20119;-56
2024/01/25 03:31:31;;;;;;;34.15;4.95;;;6.70;99.90;;;;;;7349242;32;20168;-57
2024/01/25 03:35:33;;;;;;;44.17;5.25;;;6.60;99.90;;;;;;7345455;32;20503;-56
2024/01/25 03:39:34;;;;;;;37.65;5.62;;;6.40;99.90;;;;;;7344558;32;20583;-56
2024/01/25 03:43:36;;;;;;;35.97;5.68;;;6.30;99.90;;;;;;7343708;32;20142;-57
2024/01/25 03:47:45;;;;;;;51.92;5.80;;;6.30;99.90;;;;;;7345865;32;20140;-57
2024/01/25 03:51:47;;;;;;;31.23;5.25;;;6.20;99.90;;;;;;7343447;32;20168;-57
2024/01/25 03:55:49;;;;;;;48.10;6.55;;;6.10;99.90;;;;;;7339799;32;20224;-57
2024/01/25 03:59:51;;;;;;;36.10;4.95;;;6.10;99.90;;;;;;7347383;32;20580;-56
2024/01/25 04:03:53;;;;;;;31.85;5.50;;;6.10;99.90;;;;;;7343944;32;20214;-58
2024/01/25 04:07:55;;;;;;;37.15;5.62;;;6.00;99.90;;;;;;7340646;32;20150;-59
2024/01/25 04:11:57;;;;;;;29.65;5.40;;;5.70;99.90;;;;;;7346877;32;20116;-56
2024/01/25 04:15:59;;;;;;;33.67;5.95;;;5.70;99.90;;;;;;7341178;32;20143;-56
2024/01/25 04:20:00;;;;;;;43.30;6.28;;;5.70;99.90;;;;;;7345207;32;20614;-56
2024/01/25 04:24:04;;;;;;;35.65;4.47;;;5.50;99.90;;;;;;7341768;32;20220;-56
2024/01/25 04:28:06;;;;;;;34.15;5.35;;;5.40;99.90;;;;;;7346142;32;20272;-55
2024/01/25 04:32:08;;;;;;;33.88;5.65;;;5.30;99.90;;;;;;7335628;32;20103;-55
2024/01/25 04:36:10;;;;;;;20.92;4.07;;;5.20;99.90;;;;;;7343521;32;20597;-54
2024/01/25 04:40:12;;;;;;;32.92;4.53;;;5.00;99.90;;;;;;7341767;32;20617;-55
2024/01/25 04:44:13;;;;;;;23.87;4.20;;;4.90;99.90;;;;;;7346534;32;20202;-55
2024/01/25 04:48:15;;;;;;;23.12;4.68;;;4.80;99.90;;;;;;7342062;32;20107;-56
2024/01/25 04:52:17;;;;;;;30.02;5.55;;;4.70;99.90;;;;;;7337281;32;20135;-57
2024/01/25 04:56:19;;;;;;;30.65;5.22;;;4.60;99.90;;;;;;7344068;32;20103;-55
2024/01/25 05:00:22;;;;;;;31.70;4.55;;;4.50;99.90;;;;;;7347126;32;20690;-57
2024/01/25 05:04:24;;;;;;;22.92;3.70;;;4.30;99.90;;;;;;7340411;32;20278;-56
2024/01/25 05:08:26;;;;;;;29.10;3.87;;;4.20;99.90;;;;;;7339539;32;20721;-57
2024/01/25 05:12:29;;;;;;;25.98;4.25;;;4.00;99.90;;;;;;7344413;32;20964;-56
2024/01/25 05:16:31;;;;;;;22.80;3.53;;;3.90;99.90;;;;;;7339963;32;20307;-55
2024/01/25 05:20:34;;;;;;;24.27;3.80;;;3.80;99.90;;;;;;7338507;32;20234;-55
2024/01/25 05:24:36;;;;;;;20.88;3.28;;;3.70;99.90;;;;;;7345220;32;20107;-56
2024/01/25 05:28:38;;;;;;;26.98;5.40;;;3.50;99.90;;;;;;7339887;32;20176;-56
2024/01/25 05:32:39;;;;;;;22.58;3.90;;;3.40;99.90;;;;;;7346022;32;20119;-57
2024/01/25 05:36:44;;;;;;;23.00;3.90;;;3.30;99.90;;;;;;7346362;32;20142;-55
2024/01/25 05:40:46;;;;;;;24.35;3.60;;;3.30;99.90;;;;;;7341750;32;20163;-56
2024/01/25 05:44:48;;;;;;;22.92;3.60;;;3.20;99.90;;;;;;7343979;32;20250;-57
2024/01/25 05:48:49;;;;;;;18.65;3.58;;;3.10;99.90;;;;;;7341260;32;20380;-57
2024/01/25 05:52:52;;;;;;;18.62;4.32;;;3.00;99.90;;;;;;7338489;32;20203;-55
2024/01/25 05:56:54;;;;;;;19.12;3.75;;;2.90;99.90;;;;;;7339076;32;20773;-55
2024/01/25 06:00:56;;;;;;;23.48;4.43;;;2.90;99.90;;;;;;7335217;32;20247;-55
2024/01/25 06:04:58;;;;;;;19.35;3.90;;;2.90;99.90;;;;;;7337942;32;20273;-56
2024/01/25 06:09:00;;;;;;;19.05;4.65;;;2.80;99.90;;;;;;7334225;32;20139;-56
2024/01/25 06:13:14;;;;;;;23.67;4.70;;;2.60;99.90;;;;;;7344093;32;20205;-55
2024/01/25 06:17:16;;;;;;;29.17;4.70;;;2.60;99.90;;;;;;7344786;32;20167;-57
2024/01/25 06:21:18;;;;;;;20.90;3.62;;;2.40;99.90;;;;;;7338262;32;20126;-57
2024/01/25 06:25:20;;;;;;;26.10;4.53;;;2.40;99.90;;;;;;7340068;32;20321;-56
2024/01/25 06:29:21;;;;;;;16.55;3.17;;;2.40;99.90;;;;;;7343484;32;20264;-56
2024/01/25 06:33:23;;;;;;;19.25;3.35;;;2.40;99.90;;;;;;7340864;32;20106;-56
2024/01/25 06:37:25;;;;;;;27.45;4.43;;;2.30;99.90;;;;;;7343538;32;20664;-56
2024/01/25 06:41:27;;;;;;;19.42;3.85;;;2.20;99.90;;;;;;7330856;32;20103;-56
2024/01/25 06:45:29;;;;;;;42.10;14.23;;;2.20;99.90;;;;;;7342753;32;20217;-55
2024/01/25 06:49:31;;;;;;;26.62;5.37;;;2.10;99.90;;;;;;7340540;32;20107;-56
2024/01/25 06:53:33;;;;;;;20.15;6.97;;;2.10;99.90;;;;;;7343679;32;20216;-56
2024/01/25 06:57:35;;;;;;;20.98;5.43;;;2.00;99.90;;;;;;7338471;32;20697;-58
2024/01/25 07:01:36;;;;;;;17.92;4.03;;;2.00;99.90;;;;;;7338971;32;20222;-57
2024/01/25 07:05:39;;;;;;;25.60;4.22;;;2.00;99.90;;;;;;7340315;32;20540;-56
2024/01/25 07:09:41;;;;;;;20.62;4.60;;;1.90;99.90;;;;;;7342439;32;20214;-55
2024/01/25 07:13:42;;;;;;;21.95;5.30;;;1.90;99.90;;;;;;7334122;32;20111;-56
2024/01/25 07:17:44;;;;;;;20.58;5.07;;;1.90;99.90;;;;;;7341895;32;20694;-56
2024/01/25 07:21:46;;;;;;;19.15;4.30;;;1.90;99.90;;;;;;7343203;32;20490;-56
2024/01/25 07:25:48;;;;;;;20.10;4.43;;;1.90;99.90;;;;;;7339244;32;20139;-56
2024/01/25 07:29:50;;;;;;;20.35;4.32;;;1.90;99.90;;;;;;7340909;32;20245;-57
2024/01/25 07:33:53;;;;;;;11.18;3.08;;;1.90;99.90;;;;;;7341545;32;20580;-57
2024/01/25 07:37:55;;;;;;;18.55;3.70;;;1.90;99.90;;;;;;7350392;32;20220;-58
2024/01/25 07:41:56;;;;;;;16.98;3.85;;;1.90;99.90;;;;;;7342433;32;20473;-59
2024/01/25 07:45:58;;;;;;;14.55;3.05;;;2.00;99.90;;;;;;7342737;32;20115;-57
2024/01/25 07:50:00;;;;;;;12.20;3.05;;;2.00;99.90;;;;;;7350160;32;20269;-56
2024/01/25 07:54:02;;;;;;;17.52;4.20;;;1.90;99.90;;;;;;7342609;32;20154;-59
2024/01/25 07:58:04;;;;;;;20.65;4.30;;;1.90;99.90;;;;;;7341712;32;20353;-58
2024/01/25 08:02:06;;;;;;;20.70;3.85;;;2.10;99.90;;;;;;7340976;32;20501;-58
2024/01/25 08:06:08;;;;;;;23.10;3.70;;;2.20;99.90;;;;;;7345846;32;20218;-59
2024/01/25 08:10:10;;;;;;;21.92;4.00;;;2.30;99.90;;;;;;7344235;32;20599;-58
2024/01/25 08:14:11;;;;;;;13.77;3.65;;;2.40;99.90;;;;;;7341313;32;20120;-58
2024/01/25 08:18:13;;;;;;;22.90;3.72;;;2.50;99.90;;;;;;7339914;32;20149;-57
2024/01/25 08:22:15;;;;;;;18.45;4.05;;;2.60;99.90;;;;;;7344052;32;20512;-58
2024/01/25 08:26:19;;;;;;;22.55;4.53;;;2.70;99.90;;;;;;7349795;32;20121;-58
2024/01/25 08:30:21;;;;;;;22.23;4.00;;;2.80;99.90;;;;;;7345058;32;20196;-59
2024/01/25 08:34:22;;;;;;;21.25;5.25;;;2.90;99.90;;;;;;7345884;32;20198;-59
2024/01/25 08:38:24;;;;;;;27.25;6.43;;;3.00;99.90;;;;;;7346402;32;20621;-58
2024/01/25 08:42:26;;;;;;;16.35;6.07;;;3.20;99.90;;;;;;7348576;32;20130;-59
2024/01/25 08:46:28;;;;;;;26.87;6.18;;;3.40;99.90;;;;;;7347620;32;20126;-58
2024/01/25 08:50:30;;;;;;;25.20;7.12;;;3.60;99.90;;;;;;7346364;32;20104;-58
2024/01/25 08:54:32;;;;;;;21.48;6.95;;;3.70;99.90;;;;;;7345425;32;20254;-59
2024/01/25 08:58:34;;;;;;;24.70;6.62;;;3.90;99.90;;;;;;7346537;32;20134;-58
2024/01/25 09:02:37;;;;;;;24.33;6.60;;;4.20;99.90;;;;;;7345469;32;20281;-58
2024/01/25 09:06:39;;;;;;;25.55;6.53;;;4.40;99.90;;;;;;7344323;32;20095;-59
2024/01/25 09:10:42;;;;;;;41.37;9.43;;;4.60;99.90;;;;;;7343920;32;20122;-59
2024/01/25 09:14:44;;;;;;;44.40;8.20;;;5.10;99.90;;;;;;7341755;32;20363;-58
2024/01/25 09:18:45;;;;;;;39.70;8.18;;;5.50;99.90;;;;;;7344926;32;20567;-59
2024/01/25 09:22:47;;;;;;;41.20;8.40;;;5.80;99.90;;;;;;7342698;32;20110;-60
2024/01/25 09:26:49;;;;;;;36.70;8.15;;;6.10;99.90;;;;;;7339278;32;20115;-58
2024/01/25 09:30:51;;;;;;;41.33;9.07;;;6.20;99.90;;;;;;7347142;32;20138;-58
2024/01/25 09:34:54;;;;;;;37.97;8.45;;;6.40;99.90;;;;;;7344790;32;20191;-58
2024/01/25 09:38:56;;;;;;;47.10;8.60;;;6.60;99.90;;;;;;7348911;32;20124;-58
2024/01/25 09:42:58;;;;;;;40.47;9.10;;;6.70;99.90;;;;;;7349203;32;20468;-58
2024/01/25 09:47:05;;;;;;;50.15;9.32;;;6.80;99.90;;;;;;7345683;32;20613;-58
2024/01/25 09:51:07;;;;;;;43.40;8.75;;;6.80;99.90;;;;;;7343628;32;20212;-58
2024/01/25 09:55:14;;;;;;;39.58;9.45;;;6.90;99.90;;;;;;7348451;32;20485;-58
2024/01/25 09:59:16;;;;;;;37.40;9.77;;;7.20;99.90;;;;;;7351551;32;20172;-57
2024/01/25 10:03:17;;;;;;;43.47;10.32;;;7.30;99.90;;;;;;7349347;32;20103;-59
2024/01/25 10:07:42;;;;;;;38.63;8.88;;;7.40;99.90;;;;;;7347974;32;20834;-58
2024/01/25 10:11:44;;;;;;;41.67;9.27;;;7.50;99.90;;;;;;7350941;32;20118;-58
2024/01/25 10:15:56;;;;;;;45.35;9.10;;;7.60;99.90;;;;;;7337210;32;20249;-59
2024/01/25 10:19:57;;;;;;;45.95;9.38;;;7.60;99.90;;;;;;7344625;32;20123;-59
2024/01/25 10:24:00;;;;;;;42.95;9.77;;;7.70;99.90;;;;;;7343887;32;20217;-59
2024/01/25 10:28:06;;;;;;;41.58;9.70;;;7.80;99.90;;;;;;7349172;32;20615;-59
2024/01/25 10:32:12;;;;;;;40.08;8.60;;;7.80;99.90;;;;;;7351395;32;20177;-59
2024/01/25 10:36:15;;;;;;;38.72;8.48;;;7.90;99.90;;;;;;7341745;32;20194;-58
2024/01/25 10:40:19;;;;;;;47.95;10.02;;;8.00;99.90;;;;;;7344286;32;20569;-58
2024/01/25 10:44:21;;;;;;;43.13;8.98;;;8.00;99.90;;;;;;7339361;32;20210;-58
2024/01/25 10:48:23;;;;;;;37.70;9.75;;;8.10;99.90;;;;;;7344985;32;20490;-58
2024/01/25 10:52:25;;;;;;;39.60;10.00;;;8.10;99.90;;;;;;7342997;32;20280;-58
2024/01/25 10:56:28;;;;;;;42.20;9.43;;;8.20;99.90;;;;;;7340579;32;20125;-58
2024/01/25 11:00:32;;;;;;;42.72;9.65;;;8.20;99.90;;;;;;7339868;32;20145;-58
2024/01/25 11:04:34;;;;;;;38.45;9.15;;;8.20;99.90;;;;;;7341352;32;20139;-57
2024/01/25 11:08:38;;;;;;;42.53;9.25;;;8.30;99.90;;;;;;7346076;32;20118;-57
2024/01/25 11:13:00;;;;;;;30.42;8.77;;;8.30;99.90;;;;;;7342550;32;20099;-57
2024/01/25 11:17:23;;;;;;;39.17;9.07;;;8.30;99.90;;;;;;7343792;32;20163;-58
2024/01/25 11:21:41;;;;;;;28.62;8.90;;;8.30;99.90;;;;;;7345381;32;20180;-58
2024/01/25 11:25:47;;;;;;;47.33;9.60;;;8.30;99.90;;;;;;7349640;32;20119;-58
2024/01/25 11:29:49;;;;;;;45.50;10.40;;;8.50;99.90;;;;;;7349978;32;20661;-59
2024/01/25 11:33:51;;;;;;;35.40;9.65;;;8.50;99.90;;;;;;7347261;32;20306;-59
2024/01/25 11:37:53;;;;;;;39.25;9.38;;;8.50;99.90;;;;;;7345542;32;20131;-58
2024/01/25 11:41:56;;;;;;;42.03;10.30;;;8.60;99.90;;;;;;7347718;32;20099;-58
2024/01/25 11:45:58;;;;;;;46.58;10.00;;;8.60;99.90;;;;;;7350986;32;20206;-57
2024/01/25 11:50:00;;;;;;;40.90;9.60;;;8.60;99.90;;;;;;7339694;32;20236;-58
2024/01/25 11:54:05;;;;;;;40.05;9.77;;;8.60;99.90;;;;;;7349584;32;20096;-58
2024/01/25 11:58:07;;;;;;;39.33;8.80;;;8.70;99.90;;;;;;7346554;32;20178;-59
2024/01/25 12:02:09;;;;;;;41.03;10.27;;;8.80;99.90;;;;;;7346844;32;20131;-58
2024/01/25 12:06:12;;;;;;;33.65;8.95;;;8.90;99.90;;;;;;7351159;32;20107;-59
2024/01/25 12:10:17;;;;;;;47.03;9.73;;;9.10;99.90;;;;;;7348158;32;20561;-58
2024/01/25 12:14:20;;;;;;;42.88;10.20;;;9.00;99.90;;;;;;7344753;32;20095;-58
2024/01/25 12:18:22;;;;;;;33.33;8.85;;;8.80;99.90;;;;;;7348491;32;20580;-57
2024/01/25 12:22:28;;;;;;;35.28;11.38;;;8.80;99.90;;;;;;7347089;32;20103;-56
2024/01/25 12:26:41;;;;;;;40.17;10.43;;;8.80;99.90;;;;;;7346644;32;20180;-58
2024/01/25 12:30:43;;;;;;;48.30;12.52;;;8.80;99.90;;;;;;7341196;32;20685;-59
2024/01/25 12:34:55;;;;;;;39.33;12.48;;;8.80;99.90;;;;;;7348047;32;20103;-59
2024/01/25 12:38:57;;;;;;;44.13;13.65;;;8.80;99.90;;;;;;7343811;32;20236;-59
2024/01/25 12:43:00;;;;;;;49.67;13.20;;;8.70;99.90;;;;;;7345584;32;20610;-58
2024/01/25 12:52:07;;;;;;;47.30;13.32;;;8.80;99.90;;;;;;7337227;32;20190;-57
2024/01/25 12:56:09;;;;;;;49.60;13.68;;;8.80;99.90;;;;;;7340733;32;20123;-58
2024/01/25 13:00:11;;;;;;;45.75;14.10;;;8.80;99.90;;;;;;7343147;32;20124;-58
2024/01/25 13:04:13;;;;;;;46.22;13.62;;;8.80;99.90;;;;;;7350991;32;20466;-59
2024/01/25 13:08:15;;;;;;;48.75;14.27;;;8.80;99.90;;;;;;7345378;32;20172;-57
2024/01/25 13:12:17;;;;;;;42.62;12.90;;;8.70;99.90;;;;;;7335981;32;20250;-58
2024/01/25 13:16:19;;;;;;;42.55;12.90;;;8.80;99.90;;;;;;7341580;32;20165;-59
2024/01/25 13:20:20;;;;;;;40.80;13.10;;;8.70;99.90;;;;;;7346337;32;20176;-58
2024/01/25 13:24:22;;;;;;;38.83;11.90;;;8.70;99.90;;;;;;7347173;32;21001;-58
2024/01/25 13:28:24;;;;;;;45.53;13.48;;;8.80;99.90;;;;;;7345144;32;20123;-58
2024/01/25 13:32:25;;;;;;;45.00;13.35;;;8.90;99.90;;;;;;7335226;32;20310;-59
2024/01/25 13:36:27;;;;;;;38.25;10.93;;;9.00;99.90;;;;;;7346277;32;20314;-57
2024/01/25 13:40:29;;;;;;;43.25;13.20;;;9.00;99.90;;;;;;7338563;32;20929;-57
2024/01/25 13:44:31;;;;;;;40.47;13.00;;;9.10;99.90;;;;;;7334547;32;20104;-59
2024/01/25 13:48:33;;;;;;;40.95;13.73;;;9.10;99.90;;;;;;7339373;32;20102;-59
2024/01/25 13:52:35;;;;;;;45.00;13.75;;;9.20;99.90;;;;;;7343314;32;20442;-58
2024/01/25 13:56:37;;;;;;;42.38;14.20;;;9.20;99.90;;;;;;7335724;32;20130;-60
2024/01/25 14:00:39;;;;;;;53.30;13.32;;;9.20;99.90;;;;;;7340673;32;20218;-58
2024/01/25 14:04:41;;;;;;;54.28;13.45;;;9.10;99.90;;;;;;7344334;32;20166;-60
2024/01/25 14:08:43;;;;;;;44.70;13.90;;;9.20;99.90;;;;;;7340933;32;20103;-59
2024/01/25 14:12:46;;;;;;;43.35;13.32;;;9.20;99.90;;;;;;7344279;32;20195;-59
2024/01/25 14:16:48;;;;;;;40.65;11.55;;;9.20;99.90;;;;;;7343136;32;20182;-58
2024/01/25 14:20:50;;;;;;;36.15;11.45;;;9.30;99.90;;;;;;7336442;32;20574;-59
2024/01/25 14:24:52;;;;;;;44.88;12.40;;;9.20;99.90;;;;;;7337353;32;22314;-68
2024/01/25 14:28:54;;;;;;;46.08;12.20;;;9.10;99.90;;;;;;7338533;32;20290;-65
2024/01/25 14:32:57;;;;;;;41.50;11.65;;;9.10;99.90;;;;;;7335164;32;20640;-67
2024/01/25 14:36:59;;;;;;;43.42;11.43;;;9.10;99.90;;;;;;7336503;32;20182;-59
2024/01/25 14:41:01;;;;;;;42.58;11.07;;;9.10;99.90;;;;;;7332426;32;20123;-58
2024/01/25 14:45:03;;;;;;;37.22;10.88;;;9.00;99.90;;;;;;7337765;32;20449;-60
2024/01/25 14:49:05;;;;;;;35.55;11.25;;;9.00;99.90;;;;;;7347832;32;20116;-59
2024/01/25 14:53:07;;;;;;;37.03;9.80;;;9.10;99.90;;;;;;7339824;32;20182;-58
2024/01/25 14:57:08;;;;;;;43.05;10.82;;;9.10;99.90;;;;;;7347150;32;20669;-59
2024/01/25 15:01:18;;;;;;;31.98;10.35;;;9.00;99.90;;;;;;7339821;32;20207;-59
2024/01/25 15:05:20;;;;;;;40.17;10.68;;;8.90;99.90;;;;;;7344597;32;20107;-59
2024/01/25 15:09:22;;;;;;;37.80;9.82;;;8.90;99.90;;;;;;7347264;32;20118;-59
2024/01/25 15:13:24;;;;;;;32.65;9.50;;;8.90;99.90;;;;;;7342903;32;20104;-59
2024/01/25 15:17:26;;;;;;;40.08;9.70;;;8.90;99.90;;;;;;7349609;32;20160;-59
2024/01/25 15:21:27;;;;;;;40.47;9.23;;;8.90;99.90;;;;;;7340613;32;20167;-60
2024/01/25 15:25:29;;;;;;;37.20;8.40;;;8.90;99.90;;;;;;7345800;32;20103;-59
2024/01/25 15:29:31;;;;;;;39.28;9.80;;;8.90;99.90;;;;;;7345589;32;20315;-57
2024/01/25 15:33:33;;;;;;;33.35;9.20;;;8.90;99.90;;;;;;7338500;32;20139;-58
2024/01/25 15:37:37;;;;;;;31.37;8.18;;;8.90;99.90;;;;;;7348219;32;20107;-58
2024/01/25 15:41:39;;;;;;;41.70;9.55;;;8.90;99.90;;;;;;7340026;32;20194;-59
2024/01/25 15:45:40;;;;;;;34.95;8.73;;;8.80;99.90;;;;;;7338249;32;20205;-59
2024/01/25 15:49:42;;;;;;;33.35;9.20;;;8.80;99.90;;;;;;7341129;32;20852;-57
2024/01/25 15:53:44;;;;;;;40.50;9.07;;;8.70;99.90;;;;;;7344678;32;20175;-59
2024/01/25 15:57:45;;;;;;;35.60;9.05;;;8.70;99.90;;;;;;7339448;32;20107;-59
2024/01/25 16:01:47;;;;;;;33.53;8.18;;;8.70;99.90;;;;;;7339794;32;20524;-60
2024/01/25 16:05:52;;;;;;;37.80;8.63;;;8.70;99.90;;;;;;7341124;32;20262;-59
2024/01/25 16:09:54;;;;;;;37.47;8.77;;;8.70;99.90;;;;;;7342100;32;20115;-59
2024/01/25 16:13:56;;;;;;;29.45;8.02;;;8.60;99.90;;;;;;7341586;32;20651;-56
2024/01/25 16:17:57;;;;;;;38.05;8.10;;;8.60;99.90;;;;;;7340204;32;20183;-58
2024/01/25 16:21:59;;;;;;;29.95;7.57;;;8.60;99.90;;;;;;7337666;32;20287;-57
2024/01/25 16:26:01;;;;;;;27.00;7.05;;;8.60;99.90;;;;;;7343756;32;20102;-57
2024/01/25 16:30:04;;;;;;;31.73;7.03;;;8.60;99.90;;;;;;7337214;32;20565;-56
2024/01/25 16:34:05;;;;;;;37.38;8.38;;;8.60;99.90;;;;;;7342219;32;20687;-57
2024/01/25 16:38:07;;;;;;;26.55;7.55;;;8.60;99.90;;;;;;7347583;32;20548;-57
2024/01/25 16:42:09;;;;;;;37.17;10.57;;;8.60;99.90;;;;;;7340919;32;20104;-57
2024/01/25 16:46:11;;;;;;;43.63;8.68;;;8.50;99.90;;;;;;7346797;32;20103;-58
2024/01/25 16:50:13;;;;;;;33.92;7.55;;;8.50;99.90;;;;;;7341568;32;20198;-57
2024/01/25 16:54:15;;;;;;;31.90;6.47;;;8.50;99.90;;;;;;7350130;32;20137;-58
2024/01/25 16:58:20;;;;;;;32.08;8.13;;;8.50;99.90;;;;;;7348928;32;20212;-57
2024/01/25 17:02:22;;;;;;;32.33;6.62;;;8.50;99.90;;;;;;7344604;32;20211;-57
2024/01/25 17:06:24;;;;;;;31.98;7.20;;;8.40;99.90;;;;;;7348352;32;20527;-57
2024/01/25 17:10:26;;;;;;;26.73;5.75;;;8.50;99.90;;;;;;7345792;32;20232;-58
2024/01/25 17:14:28;;;;;;;32.08;6.55;;;8.60;99.90;;;;;;7341687;32;20211;-58
2024/01/25 17:18:30;;;;;;;26.45;6.32;;;8.60;99.90;;;;;;7347897;32;20115;-58
2024/01/25 17:22:32;;;;;;;28.58;6.10;;;8.60;99.90;;;;;;7340852;32;20160;-56
2024/01/25 17:26:34;;;;;;;33.42;6.90;;;8.50;99.90;;;;;;7346730;32;20115;-56
2024/01/25 17:30:38;;;;;;;27.85;6.53;;;8.60;99.90;;;;;;7336631;32;20091;-58
2024/01/25 17:34:40;;;;;;;34.22;6.72;;;8.60;99.90;;;;;;7349088;32;20205;-57
2024/01/25 17:38:43;;;;;;;23.98;5.28;;;8.50;99.90;;;;;;7345347;32;20135;-58
2024/01/25 17:42:45;;;;;;;29.60;5.55;;;8.50;99.90;;;;;;7338538;32;20131;-57
2024/01/25 17:46:48;;;;;;;28.33;6.40;;;8.40;99.90;;;;;;7343024;32;20486;-57
2024/01/25 17:50:50;;;;;;;28.05;6.68;;;8.40;99.90;;;;;;7346116;32;20296;-58
2024/01/25 17:54:52;;;;;;;28.30;6.80;;;8.30;99.90;;;;;;7346828;32;20115;-59
2024/01/25 17:58:55;;;;;;;34.50;6.32;;;8.30;99.90;;;;;;7339524;32;20554;-58
2024/01/25 18:02:57;;;;;;;25.45;5.40;;;8.20;99.90;;;;;;7342123;32;20159;-57
2024/01/25 18:06:59;;;;;;;24.17;5.55;;;8.00;99.90;;;;;;7343508;32;20539;-58
2024/01/25 18:11:00;;;;;;;36.33;6.75;;;7.90;99.90;;;;;;7345314;32;20115;-57
2024/01/25 18:15:02;;;;;;;23.90;6.45;;;7.90;99.90;;;;;;7345961;32;20138;-57
2024/01/25 18:19:04;;;;;;;27.55;6.18;;;7.80;99.90;;;;;;7345070;32;20190;-58
2024/01/25 18:23:06;;;;;;;20.58;5.78;;;7.70;99.90;;;;;;7338585;32;20639;-58
2024/01/25 18:27:08;;;;;;;30.10;5.80;;;7.70;99.90;;;;;;7342603;32;20214;-58
2024/01/25 18:31:09;;;;;;;28.92;5.35;;;7.70;99.90;;;;;;7348363;32;20219;-56
2024/01/25 18:35:11;;;;;;;25.05;5.90;;;7.70;99.90;;;;;;7346988;32;20199;-58
2024/01/25 18:39:17;;;;;;;27.33;6.00;;;7.60;99.90;;;;;;7345639;32;20137;-58
2024/01/25 18:43:19;;;;;;;29.87;6.25;;;7.70;99.90;;;;;;7347546;32;20411;-57
2024/01/25 18:47:23;;;;;;;30.83;6.25;;;7.60;99.90;;;;;;7347317;32;20264;-58
2024/01/25 18:51:25;;;;;;;24.52;6.00;;;7.60;99.90;;;;;;7344859;32;20170;-58
2024/01/25 18:55:27;;;;;;;21.87;5.78;;;7.60;99.90;;;;;;7343827;32;20130;-59
2024/01/25 18:59:29;;;;;;;31.58;7.03;;;7.60;99.90;;;;;;7337026;32;20242;-66
2024/01/25 19:03:33;;;;;;;41.10;7.75;;;7.50;99.90;;;;;;7339748;32;20141;-58
2024/01/25 19:07:37;;;;;;;27.23;7.10;;;7.60;99.90;;;;;;7349470;32;20122;-57
2024/01/25 19:11:39;;;;;;;30.77;7.65;;;7.60;99.90;;;;;;7340499;32;20129;-57
2024/01/25 19:15:41;;;;;;;27.13;7.35;;;7.60;99.90;;;;;;7343732;32;20156;-57
2024/01/25 19:19:43;;;;;;;23.98;7.60;;;7.60;99.90;;;;;;7333082;32;20836;-60
2024/01/25 19:23:45;;;;;;;24.27;9.10;;;7.70;99.90;;;;;;7344256;32;20147;-59
2024/01/25 19:27:47;;;;;;;26.48;9.15;;;7.70;99.90;;;;;;7344521;32;20307;-59
2024/01/25 19:31:49;;;;;;;26.45;9.15;;;7.70;99.90;;;;;;7344708;32;20137;-59
2024/01/25 19:35:53;;;;;;;30.45;10.52;;;7.70;99.90;;;;;;7342544;32;20248;-58
2024/01/25 19:39:55;;;;;;;27.70;10.10;;;7.80;99.90;;;;;;7344108;32;20506;-59
2024/01/25 19:43:58;;;;;;;28.00;10.48;;;7.80;99.90;;;;;;7353417;32;20158;-61
2024/01/25 19:48:01;;;;;;;33.28;9.75;;;7.80;99.90;;;;;;7349605;32;20137;-59
2024/01/25 19:52:04;;;;;;;24.70;10.30;;;7.90;99.90;;;;;;7349205;32;20663;-59
2024/01/25 19:56:06;;;;;;;31.05;12.15;;;7.80;99.90;;;;;;7349399;32;20179;-59
2024/01/25 20:00:08;;;;;;;32.25;11.40;;;7.70;99.90;;;;;;7347676;32;20110;-60
2024/01/25 20:04:11;;;;;;;35.63;12.52;;;7.80;99.90;;;;;;7346356;32;20313;-58
2024/01/25 20:08:13;;;;;;;30.40;12.55;;;7.80;99.90;;;;;;7345017;32;20757;-58
2024/01/25 20:12:15;;;;;;;32.03;12.90;;;7.80;99.90;;;;;;7343218;32;20582;-60
2024/01/25 20:16:17;;;;;;;28.15;12.52;;;7.90;99.90;;;;;;7344280;32;20111;-59
2024/01/25 20:20:20;;;;;;;27.40;14.15;;;7.90;99.90;;;;;;7354765;32;20130;-58
2024/01/25 20:24:31;;;;;;;34.47;14.77;;;7.90;99.90;;;;;;7344388;32;20218;-59
2024/01/25 20:28:33;;;;;;;30.25;15.23;;;8.00;99.90;;;;;;7343045;32;20131;-59
2024/01/25 20:32:35;;;;;;;35.00;15.77;;;8.00;99.90;;;;;;7348085;32;20192;-60
2024/01/25 20:36:37;;;;;;;37.30;17.92;;;8.00;99.90;;;;;;7353077;32;20153;-59
2024/01/25 20:40:40;;;;;;;31.30;16.73;;;8.10;99.90;;;;;;7347684;32;20262;-60
2024/01/25 20:44:42;;;;;;;40.30;17.17;;;8.00;99.90;;;;;;7346632;32;20111;-60
2024/01/25 20:48:44;;;;;;;31.85;15.63;;;8.10;99.90;;;;;;7345237;32;20200;-59
2024/01/25 20:52:46;;;;;;;35.83;17.37;;;8.20;99.90;;;;;;7347162;32;20204;-59
2024/01/25 20:56:48;;;;;;;29.73;17.12;;;8.20;99.90;;;;;;7341527;32;20131;-59
2024/01/25 21:00:51;;;;;;;34.78;17.08;;;8.20;99.90;;;;;;7353121;32;20146;-57
2024/01/25 21:04:53;;;;;;;36.60;18.00;;;8.20;99.90;;;;;;7347340;32;20112;-59